Data for 02/23/2015

Time Sea-Level Adjusted Pressure Absolute Pressure Temperature Relative Humidity Dew Point   
(mb) (inHg) (mb) (inHg) (C) (F) (%) (C) (F)
00:05 1028 30.36 857 25.31 -15.8 3.7 68 -20.4 -4.8
00:10 1028 30.36 857 25.31 -15.7 3.7 68 -20.4 -4.7
00:15 1028 30.36 857 25.31 -15.7 3.8 69 -20.2 -4.4
00:20 1028 30.36 857 25.31 -15.4 4.3 66 -20.3 -4.5
00:25 1028 30.36 857 25.31 -15.4 4.2 66 -20.4 -4.8
00:30 1028 30.36 857 25.31 -15.5 4 65 -20.7 -5.2
00:35 1028 30.36 857 25.31 -15.6 4 64 -21 -5.8
00:40 1028 30.36 857 25.31 -15.3 4.4 63 -20.9 -5.5
00:45 1028 30.36 857 25.31 -15.2 4.6 62 -21 -5.7
00:50 1028 30.36 857 25.31 -15.4 4.2 65 -20.6 -5.1
00:55 1028 30.36 857 25.31 -15.7 3.7 66 -20.7 -5.2
01:00 1028 30.36 857 25.31 -15.6 3.9 66 -20.6 -5.1
01:05 1028 30.36 857 25.31 -15.7 3.7 67 -20.5 -4.9
01:10 1028 30.36 857 25.31 -15.8 3.5 67 -20.6 -5
01:15 1028 30.36 857 25.31 -15.9 3.3 68 -20.5 -4.9
01:20 1028 30.36 857 25.31 -16 3.1 68 -20.7 -5.3
01:25 1028 30.36 857 25.31 -16.1 3.1 68 -20.7 -5.3
01:30 1028 30.36 857 25.31 -16 3.2 68 -20.6 -5
01:35 1028 30.36 857 25.31 -15.7 3.7 67 -20.5 -5
01:40 1028 30.36 857 25.31 -15.5 4.1 66 -20.4 -4.8
01:45 1028 30.36 857 25.31 -15.3 4.4 65 -20.5 -4.8
01:50 1028 30.36 857 25.31 -15.2 4.6 64 -20.5 -4.9
01:55 1028 30.36 857 25.31 -15.2 4.7 62 -20.9 -5.6
02:00 1028 30.36 857 25.31 -15.4 4.3 64 -20.7 -5.3
02:05 1028 30.36 857 25.31 -15.7 3.7 65 -20.8 -5.4
02:10 1028 30.36 857 25.31 -15.6 3.9 63 -21.1 -6.1
02:15 1028 30.36 857 25.31 -15.8 3.6 65 -21 -5.7
02:20 1028 30.36 857 25.31 -15.8 3.5 67 -20.7 -5.2
02:25 1028 30.36 857 25.31 -15.9 3.4 67 -20.7 -5.2
02:30 1028 30.36 857 25.31 -16 3.2 67 -20.8 -5.4
02:35 1028 30.36 857 25.31 -16 3.2 67 -20.8 -5.4
02:40 1028 30.36 857 25.31 -15.8 3.6 66 -20.8 -5.4
02:45 1028 30.36 857 25.31 -16.3 2.7 68 -20.9 -5.7
02:50 1028 30.36 857 25.31 -15.9 3.3 66 -20.9 -5.6
02:55 1028 30.36 857 25.31 -15.4 4.3 64 -20.7 -5.2
03:00 1028 30.36 857 25.31 -14.9 5.1 62 -20.6 -5.1
03:05 1028 30.36 857 25.31 -14.7 5.6 63 -20.3 -4.5
03:10 1028 30.36 857 25.31 -15.4 4.2 65 -20.6 -5.1
03:15 1028 30.36 857 25.31 -15.9 3.5 67 -20.7 -5.3
03:20 1028 30.36 857 25.31 -16.1 3.1 68 -20.7 -5.3
03:25 1028 30.36 857 25.31 -16.5 2.3 69 -20.9 -5.6
03:30 1028 30.36 857 25.31 -16.3 2.6 68 -20.9 -5.7
03:35 1028 30.36 857 25.31 -16.4 2.6 68 -20.9 -5.6
03:40 1028 30.36 857 25.31 -16.5 2.3 69 -20.9 -5.6
03:45 1028 30.36 857 25.31 -16.3 2.7 68 -20.9 -5.7
03:50 1028 30.36 857 25.31 -16.1 3 67 -20.8 -5.5
03:55 1028 30.36 857 25.31 -16 3.1 67 -20.8 -5.4
04:00 1028 30.36 857 25.31 -16.1 3 68 -20.8 -5.4
04:05 1028 30.36 857 25.31 -16.4 2.5 69 -20.8 -5.4
04:10 1028 30.36 857 25.31 -16.8 1.7 70 -21 -5.8
04:15 1028 30.36 857 25.31 -17.1 1.3 71 -21.1 -5.9
04:20 1028 30.36 857 25.31 -16.8 1.8 69 -21.1 -6.1
04:25 1028 30.36 857 25.31 -16.6 2.1 70 -20.9 -5.6
04:30 1028 30.36 857 25.31 -16.7 1.9 70 -21 -5.8
04:35 1028 30.36 857 25.31 -16.6 2.1 68 -21.1 -6
04:40 1027 30.33 857 25.31 -16.6 2.1 68 -21.2 -6.1
04:45 1027 30.33 857 25.31 -16.6 2.1 69 -21.1 -5.9
04:50 1027 30.33 857 25.31 -16.5 2.3 69 -21 -5.7
04:55 1027 30.33 857 25.31 -16.5 2.3 68 -21.1 -5.9
05:00 1027 30.33 857 25.31 -16.7 2 69 -21.1 -5.9
05:05 1027 30.33 857 25.31 -16.9 1.7 70 -21.2 -6.1
05:10 1027 30.33 857 25.31 -16.9 1.5 70 -21.2 -6.2
05:15 1027 30.33 857 25.31 -17 1.5 70 -21.3 -6.3
05:20 1027 30.33 857 25.31 -16.9 1.5 70 -21.2 -6.2
05:25 1027 30.33 857 25.31 -17.1 1.3 71 -21.2 -6.1
05:30 1027 30.33 857 25.31 -16.9 1.6 70 -21.1 -6
05:35 1027 30.33 856 25.28 -16.9 1.7 70 -21.1 -6.1
05:40 1027 30.33 856 25.28 -16.8 1.8 69 -21.1 -6
05:45 1027 30.33 856 25.28 -16.8 1.9 69 -21.1 -6
05:50 1027 30.33 856 25.28 -16.6 2.1 69 -21.1 -6
05:55 1027 30.33 856 25.28 -16.8 1.7 69 -21.2 -6.2
06:00 1027 30.33 856 25.28 -16.9 1.7 69 -21.2 -6.2
06:05 1027 30.33 856 25.28 -17 1.5 70 -21.2 -6.1
06:10 1027 30.33 856 25.28 -17 1.5 70 -21.2 -6.1
06:15 1027 30.33 856 25.28 -16.9 1.6 70 -21.1 -6
06:20 1027 30.33 856 25.28 -17 1.4 70 -21.2 -6.2
06:25 1027 30.33 856 25.28 -17.4 0.7 71 -21.5 -6.7
06:30 1027 30.33 856 25.28 -17.5 0.5 71 -21.6 -6.9
06:35 1027 30.33 856 25.28 -17.5 0.4 72 -21.5 -6.7
06:40 1027 30.33 856 25.28 -17.6 0.4 72 -21.5 -6.8
06:45 1027 30.33 856 25.28 -17.5 0.6 71 -21.5 -6.7
06:50 1027 30.33 856 25.28 -17.4 0.7 72 -21.3 -6.4
06:55 1027 30.33 856 25.28 -17.3 0.9 71 -21.4 -6.5
07:00 1027 30.33 856 25.28 -17.3 0.8 71 -21.4 -6.6
07:05 1027 30.33 856 25.28 -17.2 1 71 -21.3 -6.3
07:10 1027 30.33 856 25.28 -16.7 2 68 -21.3 -6.4
07:15 1027 30.33 856 25.28 -16.8 1.8 69 -21.2 -6.2
07:20 1027 30.33 856 25.28 -17.1 1.2 71 -21.3 -6.3
07:25 1027 30.33 856 25.28 -17.1 1.2 70 -21.4 -6.4
07:30 1027 30.33 856 25.28 -17.1 1.3 70 -21.2 -6.2
07:35 1027 30.33 856 25.28 -16.9 1.6 71 -21 -5.8
07:40 1027 30.33 856 25.28 -16.4 2.5 69 -20.8 -5.4
07:45 1027 30.33 856 25.28 -16.6 2.2 69 -21 -5.9
07:50 1027 30.33 856 25.28 -16.9 1.7 70 -21.2 -6.1
07:55 1027 30.33 856 25.28 -17 1.4 70 -21.2 -6.2
08:00 1027 30.33 856 25.28 -17.1 1.3 71 -21.1 -6
08:05 1027 30.33 856 25.28 -17.1 1.2 71 -21.2 -6.1
08:10 1027 30.33 856 25.28 -17.2 1.1 71 -21.2 -6.2
08:15 1027 30.33 856 25.28 -17.3 0.8 72 -21.2 -6.1
08:20 1027 30.33 856 25.28 -17.3 0.9 71 -21.3 -6.4
08:25 1027 30.33 856 25.28 -17.4 0.8 71 -21.4 -6.5
08:30 1027 30.33 856 25.28 -17.5 0.6 71 -21.5 -6.7
08:35 1027 30.33 856 25.28 -17.1 1.2 69 -21.4 -6.6
08:40 1027 30.33 856 25.28 -16.6 2.1 68 -21.2 -6.2
08:45 1027 30.33 856 25.28 -16.5 2.4 68 -21.1 -6
08:50 1027 30.33 856 25.28 -16.4 2.6 66 -21.3 -6.4
08:55 1027 30.33 856 25.28 -16.1 2.9 65 -21.3 -6.3
09:00 1027 30.33 856 25.28 -16 3.2 65 -21.2 -6.2
09:05 1027 30.33 856 25.28 -15.9 3.4 65 -21.1 -5.9
09:10 1027 30.33 856 25.28 -15.5 4.1 64 -20.9 -5.7
09:15 1027 30.33 856 25.28 -15 5 62 -20.7 -5.2
09:20 1027 30.33 856 25.28 -14.2 6.5 59 -20.5 -4.9
09:25 1027 30.33 856 25.28 -14 6.7 60 -20.2 -4.3
09:30 1027 30.33 856 25.28 -13.8 7.1 59 -20.3 -4.5
09:35 1027 30.33 856 25.28 -13.4 7.9 58 -20 -4
09:40 1027 30.33 856 25.28 -12.8 8.9 56 -19.9 -3.8
09:45 1027 30.33 856 25.28 -12.7 9.2 56 -19.8 -3.6
09:50 1027 30.33 856 25.28 -12.6 9.4 56 -19.7 -3.5
09:55 1027 30.33 856 25.28 -12 10.3 55 -19.4 -2.9
10:00 1027 30.33 856 25.28 -11.9 10.5 54 -19.4 -2.9
10:05 1027 30.33 856 25.28 -11.1 12 51 -19.4 -2.9
10:10 1027 30.33 856 25.28 -11 12.2 50 -19.5 -3.1
10:15 1027 30.33 856 25.28 -10.8 12.5 51 -19.2 -2.5
10:20 1027 30.33 856 25.28 -10.6 12.8 49 -19.3 -2.8
10:25 1027 30.33 856 25.28 -10.6 12.9 48 -19.7 -3.5
10:30 1026 30.3 856 25.28 -10.1 13.8 47 -19.3 -2.8
10:35 1026 30.3 856 25.28 -10.6 13 51 -18.8 -1.9
10:40 1026 30.3 856 25.28 -10.4 13.3 50 -19 -2.3
10:45 1026 30.3 856 25.28 -10 14 48 -19.1 -2.4
10:50 1026 30.3 856 25.28 -9.4 15.1 48 -18.5 -1.2
10:55 1026 30.3 856 25.28 -9.4 15.2 46 -19 -2.2
11:00 1026 30.3 856 25.28 -9 15.8 45 -18.8 -1.9
11:05 1026 30.3 856 25.28 -8.9 16 46 -18.5 -1.4
11:10 1026 30.3 856 25.28 -8.8 16.2 45 -18.8 -1.8
11:15 1027 30.33 856 25.28 -8.5 16.6 45 -18.5 -1.4
11:20 1027 30.33 856 25.28 -8.4 16.9 43 -18.9 -2
11:25 1027 30.33 856 25.28 -8 17.7 44 -18.1 -0.5
11:30 1027 30.33 856 25.28 -7.8 17.9 46 -17.7 0.2
11:35 1027 30.33 856 25.28 -7.6 18.4 44 -17.9 -0.3
11:40 1027 30.33 856 25.28 -7.5 18.5 44 -17.9 -0.2
11:45 1027 30.33 856 25.28 -7.9 17.7 45 -17.9 -0.2
11:50 1027 30.33 856 25.28 -8 17.7 45 -17.9 -0.2
11:55 1027 30.33 856 25.28 -8.1 17.3 44 -18.4 -1.1
12:00 1027 30.33 856 25.28 -8.5 16.7 45 -18.5 -1.3
12:05 1027 30.33 856 25.28 -9.6 14.7 48 -18.6 -1.5
12:10 1027 30.33 856 25.28 -10.1 13.8 49 -18.9 -2.1
12:15 1027 30.33 856 25.28 -10.2 13.7 52 -18.3 -0.9
12:20 1027 30.33 856 25.28 -9.7 14.6 49 -18.6 -1.5
12:25 1027 30.33 856 25.28 -9.4 15.2 51 -17.8 -0.1
12:30 1027 30.33 856 25.28 -9.2 15.4 49 -18.2 -0.8
12:35 1027 30.33 856 25.28 -8.9 15.9 45 -18.8 -1.9
12:40 1027 30.33 856 25.28 -8.5 16.8 43 -19 -2.2
12:45 1027 30.33 856 25.28 -7.7 18.2 41 -18.7 -1.7
12:50 1027 30.33 856 25.28 -6.6 20.1 40 -18.2 -0.7
12:55 1027 30.33 856 25.28 -6 21.2 37 -18.5 -1.3
13:00 1027 30.33 856 25.28 -6.1 21 39 -18 -0.4
13:05 1027 30.33 856 25.28 -6 21.1 38 -18.2 -0.8
13:10 1027 30.33 856 25.28 -5.5 22 36 -18.3 -0.9
13:15 1027 30.33 856 25.28 -5.4 22.4 36 -18.1 -0.6
13:20 1027 30.33 856 25.28 -5.8 21.6 38 -17.9 -0.2
13:25 1027 30.33 856 25.28 -5.7 21.8 40 -17.1 1.2
13:30 1027 30.33 856 25.28 -5.8 21.5 41 -17.2 1
13:35 1026 30.3 856 25.28 -6.7 19.9 44 -17.2 1.1
13:40 1026 30.3 855 25.25 -7.8 18 44 -18 -0.4
13:45 1026 30.3 856 25.28 -7.7 18.1 45 -17.8 -0.1
13:50 1026 30.3 855 25.25 -7.4 18.8 43 -17.9 -0.2
13:55 1026 30.3 855 25.25 -7.5 18.5 45 -17.5 0.5
14:00 1026 30.3 855 25.25 -7.2 19.1 41 -18.3 -0.9
14:05 1026 30.3 855 25.25 -7.1 19.2 42 -17.8 -0.1
14:10 1026 30.3 855 25.25 -6.1 21.1 39 -17.9 -0.2
14:15 1026 30.3 855 25.25 -6.1 20.9 41 -17.4 0.8
14:20 1026 30.3 855 25.25 -5.4 22.2 38 -17.6 0.4
14:25 1026 30.3 855 25.25 -4.9 23.2 37 -17.3 0.8
14:30 1026 30.3 855 25.25 -4.5 23.9 37 -17.2 1
14:35 1026 30.3 855 25.25 -3.8 25.2 33 -17.7 0.1
14:40 1026 30.3 855 25.25 -4.1 24.5 39 -16.3 2.7
14:45 1026 30.3 855 25.25 -5.8 21.5 41 -17 1.4
14:50 1026 30.3 855 25.25 -6 21.2 43 -16.6 2
14:55 1026 30.3 855 25.25 -6.4 20.5 44 -16.6 2
15:00 1026 30.3 855 25.25 -5.5 22.2 40 -16.9 1.5
15:05 1026 30.3 855 25.25 -5 23.1 42 -16 3.2
15:10 1026 30.3 855 25.25 -5.1 22.8 41 -16.4 2.5
15:15 1026 30.3 855 25.25 -5.4 22.3 42 -16.5 2.3
15:20 1026 30.3 855 25.25 -4.6 23.8 37 -17.3 0.9
15:25 1026 30.3 855 25.25 -4.6 23.8 38 -16.8 1.8
15:30 1026 30.3 855 25.25 -4.5 23.9 39 -16.6 2
15:35 1026 30.3 855 25.25 -4.2 24.4 37 -16.9 1.6
15:40 1026 30.3 855 25.25 -4.2 24.5 37 -16.8 1.7
15:45 1026 30.3 855 25.25 -3.9 25 36 -16.9 1.5
15:50 1026 30.3 855 25.25 -4.2 24.5 39 -16.1 3
15:55 1026 30.3 855 25.25 -4.5 24 41 -15.9 3.4
16:00 1026 30.3 855 25.25 -4.2 24.5 38 -16.5 2.3
16:05 1026 30.3 855 25.25 -4.4 24.1 39 -16.5 2.3
16:10 1026 30.3 855 25.25 -4.5 23.9 39 -16.5 2.3
16:15 1026 30.3 855 25.25 -4.2 24.4 39 -16.2 2.9
16:20 1026 30.3 855 25.25 -3.6 25.5 34 -17.5 0.6
16:25 1026 30.3 855 25.25 -3.5 25.6 34 -17.1 1.1
16:30 1026 30.3 855 25.25 -3.6 25.5 37 -16.3 2.7
16:35 1026 30.3 855 25.25 -3.2 26.2 32 -17.7 0.2
16:40 1026 30.3 855 25.25 -3.5 25.6 33 -17.5 0.5
16:45 1026 30.3 855 25.25 -3.4 25.9 34 -17 1.4
16:50 1026 30.3 855 25.25 -3.5 25.8 34 -17.3 0.9
16:55 1026 30.3 855 25.25 -3.1 26.4 31 -18.1 -0.6
17:00 1026 30.3 855 25.25 -2.3 27.9 29 -17.9 -0.2
17:05 1026 30.3 855 25.25 -2.3 27.8 31 -17.5 0.5
17:10 1026 30.3 855 25.25 -2.4 27.7 31 -17.4 0.7
17:15 1026 30.3 855 25.25 -2.3 27.8 29 -18 -0.4
17:20 1025 30.27 855 25.25 -2.3 28 28 -18.3 -0.9
17:25 1026 30.3 855 25.25 -1.6 29.2 29 -17.3 0.9
17:30 1026 30.3 855 25.25 -1.4 29.4 28 -17.6 0.4
17:35 1026 30.3 855 25.25 -1.4 29.4 29 -17.4 0.7
17:40 1026 30.3 855 25.25 -1.4 29.4 28 -17.6 0.3
17:45 1026 30.3 855 25.25 -1.9 28.6 32 -16.5 2.4
17:50 1026 30.3 855 25.25 -3 26.5 34 -16.7 2
17:55 1025 30.27 855 25.25 -3.6 25.5 36 -16.7 1.9
18:00 1025 30.27 855 25.25 -3.7 25.3 36 -16.7 1.9
18:05 1025 30.27 855 25.25 -3.7 25.4 35 -17 1.4
18:10 1025 30.27 855 25.25 -3.3 26.1 33 -17.6 0.3
18:15 1025 30.27 855 25.25 -2.9 26.8 31 -17.6 0.3
18:20 1025 30.27 855 25.25 -2.9 26.9 31 -17.7 0.2
18:25 1025 30.27 855 25.25 -3.3 26.1 32 -17.9 -0.2
18:30 1025 30.27 855 25.25 -3.5 25.8 32 -18 -0.4
18:35 1025 30.27 855 25.25 -3.5 25.7 30 -18.9 -2
18:40 1025 30.27 855 25.25 -3.6 25.5 30 -18.9 -2
18:45 1025 30.27 855 25.25 -3.8 25.2 32 -18.2 -0.8
18:50 1025 30.27 855 25.25 -3.5 25.8 30 -18.5 -1.3
18:55 1025 30.27 854 25.22 -3.4 25.8 30 -18.8 -1.9
19:00 1025 30.27 855 25.25 -4 24.8 31 -18.7 -1.6
19:05 1025 30.27 855 25.25 -4.2 24.4 32 -18.7 -1.7
19:10 1025 30.27 855 25.25 -4.2 24.5 32 -18.4 -1.1
19:15 1025 30.27 855 25.25 -4.3 24.3 33 -18.1 -0.6
19:20 1026 30.3 855 25.25 -4.4 24 35 -17.6 0.3
19:25 1026 30.3 855 25.25 -4.6 23.8 39 -16.7 2
19:30 1026 30.3 855 25.25 -4.7 23.6 39 -16.6 2.1
19:35 1026 30.3 855 25.25 -4.7 23.5 38 -16.9 1.6
19:40 1026 30.3 855 25.25 -4.7 23.6 40 -16.4 2.4
19:45 1026 30.3 855 25.25 -4.7 23.6 41 -16 3.2
19:50 1026 30.3 855 25.25 -4.7 23.5 42 -15.7 3.7
19:55 1026 30.3 855 25.25 -4.8 23.4 43 -15.6 3.9
20:00 1026 30.3 855 25.25 -4.8 23.3 43 -15.5 4.1
20:05 1026 30.3 855 25.25 -5.2 22.6 41 -16.6 2.1
20:10 1026 30.3 855 25.25 -5.3 22.4 39 -17.1 1.2
20:15 1026 30.3 855 25.25 -5.3 22.4 41 -16.8 1.8
20:20 1026 30.3 855 25.25 -5.3 22.4 41 -16.7 2
20:25 1026 30.3 855 25.25 -5.3 22.4 41 -16.7 1.9
20:30 1026 30.3 855 25.25 -5.3 22.4 40 -17 1.5
20:35 1026 30.3 855 25.25 -5.2 22.7 42 -16.2 2.8
20:40 1026 30.3 855 25.25 -5 22.9 42 -16 3.2
20:45 1026 30.3 855 25.25 -4.8 23.3 44 -15.3 4.5
20:50 1026 30.3 855 25.25 -4.6 23.8 42 -15.8 3.6
20:55 1026 30.3 855 25.25 -4.5 23.9 42 -15.6 3.9
21:00 1026 30.3 855 25.25 -4.6 23.7 39 -16.7 1.9
21:05 1026 30.3 855 25.25 -4.9 23.2 44 -15.4 4.3
21:10 1026 30.3 855 25.25 -5.1 22.8 42 -16 3.2
21:15 1026 30.3 855 25.25 -5.2 22.6 45 -15.5 4.2
21:20 1026 30.3 855 25.25 -5.2 22.7 44 -15.7 3.7
21:25 1026 30.3 855 25.25 -5.1 22.8 48 -14.6 5.8
21:30 1026 30.3 855 25.25 -5.2 22.7 48 -14.5 5.8
21:35 1026 30.3 855 25.25 -5.3 22.5 50 -14.1 6.7
21:40 1026 30.3 855 25.25 -5.3 22.4 48 -14.8 5.3
21:45 1026 30.3 855 25.25 -5.2 22.6 48 -14.7 5.5
21:50 1026 30.3 855 25.25 -5.2 22.6 45 -15.3 4.5
21:55 1026 30.3 855 25.25 -5.1 22.8 46 -15.1 4.8
22:00 1026 30.3 855 25.25 -5.1 22.8 48 -14.5 6
22:05 1026 30.3 855 25.25 -5.1 22.9 47 -14.6 5.6
22:10 1026 30.3 855 25.25 -5.1 22.8 44 -15.5 4.1
22:15 1026 30.3 855 25.25 -5.2 22.7 49 -14.3 6.2
22:20 1026 30.3 855 25.25 -5.2 22.7 48 -14.4 6
22:25 1026 30.3 855 25.25 -5.2 22.7 48 -14.7 5.6
22:30 1026 30.3 855 25.25 -5.2 22.7 48 -14.5 5.9
22:35 1026 30.3 855 25.25 -5.2 22.7 46 -15.1 4.8
22:40 1026 30.3 855 25.25 -5.2 22.7 49 -14.3 6.2
22:45 1026 30.3 856 25.28 -5.1 22.8 48 -14.6 5.8
22:50 1026 30.3 856 25.28 -5.1 22.9 49 -14.3 6.3
22:55 1026 30.3 856 25.28 -5.1 22.9 49 -14.3 6.3
23:00 1026 30.3 856 25.28 -5 23.1 50 -13.8 7.1
23:05 1026 30.3 855 25.25 -5 23 51 -13.6 7.5
23:10 1026 30.3 855 25.25 -5.1 22.8 53 -13.4 8
23:15 1026 30.3 855 25.25 -5.2 22.7 53 -13.4 7.9
23:20 1026 30.3 855 25.25 -5.2 22.7 54 -13.1 8.4
23:25 1026 30.3 855 25.25 -5.1 22.9 55 -12.9 8.8
23:30 1026 30.3 855 25.25 -5 23 53 -13.1 8.5
23:35 1026 30.3 855 25.25 -4.9 23.1 51 -13.5 7.7
23:40 1026 30.3 855 25.25 -4.8 23.3 48 -14.1 6.6
23:45 1026 30.3 855 25.25 -4.7 23.6 48 -14.1 6.6
23:50 1026 30.3 855 25.25 -4.6 23.7 47 -14.2 6.5
23:55 1026 30.3 855 25.25 -4.5 23.9 46 -14.5 5.8
24:00 1026 30.3 855 25.25 -4.5 23.9 47 -14.1 6.6